createdAt,value
2019-06-27T00:00:06.172Z,11.60
2019-06-27T00:02:35.238Z,11.83
2019-06-27T00:05:04.682Z,12.58
2019-06-27T00:07:33.554Z,11.53
2019-06-27T00:10:03.391Z,11.22
2019-06-27T00:12:32.381Z,12.10
2019-06-27T00:15:01.232Z,12.23
2019-06-27T00:17:30.163Z,11.53
2019-06-27T00:19:59.058Z,11.08
2019-06-27T00:22:28.076Z,11.05
2019-06-27T00:24:56.956Z,11.90
2019-06-27T00:27:25.891Z,11.25
2019-06-27T00:29:54.775Z,10.68
2019-06-27T00:32:23.722Z,10.90
2019-06-27T00:34:52.679Z,11.73
2019-06-27T00:37:21.623Z,12.63
2019-06-27T00:39:50.643Z,11.65
2019-06-27T00:42:19.574Z,11.35
2019-06-27T00:44:48.591Z,10.78
2019-06-27T00:47:17.467Z,12.07
2019-06-27T00:49:46.486Z,11.85
2019-06-27T00:52:15.508Z,11.93
2019-06-27T00:54:44.394Z,11.65
2019-06-27T00:57:14.791Z,11.85
2019-06-27T00:59:43.875Z,10.78
2019-06-27T01:02:12.800Z,11.33
2019-06-27T01:04:41.760Z,12.18
2019-06-27T01:07:11.018Z,11.33
2019-06-27T01:09:39.967Z,12.35
2019-06-27T01:12:08.907Z,12.07
2019-06-27T01:14:37.851Z,12.63
2019-06-27T01:17:06.791Z,12.95
2019-06-27T01:19:36.212Z,12.60
2019-06-27T01:22:05.231Z,11.88
2019-06-27T01:24:34.121Z,12.15
2019-06-27T01:27:03.127Z,12.30
2019-06-27T01:29:32.107Z,13.45
2019-06-27T01:32:01.382Z,12.50
2019-06-27T01:34:30.406Z,12.43
2019-06-27T01:36:59.436Z,11.65
2019-06-27T01:39:28.381Z,13.00
2019-06-27T01:41:57.398Z,12.68
2019-06-27T01:45:00.554Z,12.00
2019-06-27T01:47:29.490Z,11.80
2019-06-27T01:49:58.456Z,12.88
2019-06-27T01:52:27.319Z,12.10
2019-06-27T01:54:56.338Z,12.47
2019-06-27T01:57:25.192Z,11.95
2019-06-27T01:59:54.119Z,12.98
2019-06-27T02:02:23.105Z,12.50
2019-06-27T02:04:52.028Z,12.55
2019-06-27T02:07:20.955Z,11.75
2019-06-27T02:09:49.891Z,11.38
2019-06-27T02:12:18.735Z,11.25
2019-06-27T02:14:47.669Z,12.98
2019-06-27T02:17:16.655Z,12.98
2019-06-27T02:19:45.642Z,13.43
2019-06-27T02:22:14.579Z,12.18
2019-06-27T02:24:43.571Z,13.40
2019-06-27T02:27:12.771Z,12.47
2019-06-27T02:29:41.686Z,13.03
2019-06-27T02:32:10.539Z,12.75
2019-06-27T02:34:39.424Z,13.62
2019-06-27T02:37:08.350Z,13.95
2019-06-27T02:39:37.322Z,14.00
2019-06-27T02:42:06.333Z,13.83
2019-06-27T02:44:35.174Z,12.95
2019-06-27T02:47:04.107Z,13.32
2019-06-27T02:49:32.948Z,14.80
2019-06-27T02:52:01.909Z,13.78
2019-06-27T02:54:30.772Z,14.35
2019-06-27T02:56:59.625Z,14.95
2019-06-27T02:59:28.539Z,14.35
2019-06-27T03:01:57.430Z,13.90
2019-06-27T03:04:26.271Z,13.78
2019-06-27T03:06:55.279Z,13.70
2019-06-27T03:09:24.191Z,13.65
2019-06-27T03:11:53.195Z,13.18
2019-06-27T03:14:22.128Z,13.80
2019-06-27T03:16:51.384Z,13.65
2019-06-27T03:19:20.306Z,11.88
2019-06-27T03:21:49.252Z,13.25
2019-06-27T03:24:18.103Z,12.60
2019-06-27T03:26:47.023Z,14.35
2019-06-27T03:29:19.980Z,12.47
2019-06-27T03:31:46.876Z,13.68
2019-06-27T03:34:15.983Z,13.83
2019-06-27T03:36:44.822Z,14.07
2019-06-27T03:39:13.735Z,12.43
2019-06-27T03:41:42.663Z,12.63
2019-06-27T03:44:11.501Z,12.88
2019-06-27T03:46:40.507Z,14.58
2019-06-27T03:49:09.683Z,13.65
2019-06-27T03:51:38.556Z,12.93
2019-06-27T03:54:07.468Z,12.63
2019-06-27T03:56:36.398Z,12.35
2019-06-27T03:59:11.990Z,12.13
2019-06-27T04:01:35.997Z,12.15
2019-06-27T04:04:04.989Z,10.93
2019-06-27T04:06:33.908Z,11.68
2019-06-27T04:09:03.064Z,11.68
2019-06-27T04:11:32.041Z,11.55
2019-06-27T04:14:01.009Z,11.10
2019-06-27T04:16:29.943Z,11.10
2019-06-27T04:18:58.883Z,12.45
2019-06-27T04:21:27.922Z,11.97
2019-06-27T04:23:56.858Z,13.25
2019-06-27T04:26:25.791Z,11.65
2019-06-27T04:28:54.652Z,11.90
2019-06-27T04:31:23.572Z,11.38
2019-06-27T04:33:52.428Z,12.13
2019-06-27T04:36:21.344Z,11.85
2019-06-27T04:38:50.348Z,10.53
2019-06-27T04:41:19.335Z,11.95
2019-06-27T04:43:48.342Z,11.28
2019-06-27T04:46:17.186Z,12.25
2019-06-27T04:48:46.051Z,11.95
2019-06-27T04:51:14.888Z,11.78
2019-06-27T04:53:43.731Z,12.37
2019-06-27T04:56:12.599Z,12.13
2019-06-27T04:58:41.482Z,12.18
2019-06-27T05:01:10.341Z,12.47
2019-06-27T05:03:39.208Z,11.55
2019-06-27T05:06:08.063Z,12.65
2019-06-27T05:08:36.923Z,12.95
2019-06-27T05:11:05.861Z,12.30
2019-06-27T05:13:34.830Z,13.03
2019-06-27T05:16:03.793Z,12.43
2019-06-27T05:18:32.699Z,12.28
2019-06-27T05:21:01.530Z,12.55
2019-06-27T05:23:30.382Z,13.72
2019-06-27T05:25:59.238Z,12.65
2019-06-27T05:28:28.172Z,12.00
2019-06-27T05:30:57.039Z,12.82
2019-06-27T05:33:25.884Z,11.28
2019-06-27T05:35:54.903Z,9.13
2019-06-27T05:38:23.765Z,10.03
2019-06-27T05:40:52.676Z,13.58
2019-06-27T05:43:21.503Z,10.70
2019-06-27T05:45:50.362Z,12.35
2019-06-27T05:48:19.313Z,12.50
2019-06-27T05:50:48.229Z,12.33
2019-06-27T05:53:17.078Z,11.28
2019-06-27T05:55:47.070Z,11.65
2019-06-27T05:58:16.178Z,11.15
2019-06-27T06:00:45.138Z,11.18
2019-06-27T06:03:14.022Z,10.50
2019-06-27T06:05:42.855Z,10.70
2019-06-27T06:08:17.269Z,10.53
2019-06-27T06:10:46.126Z,10.53
2019-06-27T06:13:14.971Z,10.43
2019-06-27T06:15:43.810Z,10.93
2019-06-27T06:18:12.726Z,9.83
2019-06-27T06:20:41.565Z,9.90
2019-06-27T06:23:10.983Z,9.53
2019-06-27T06:25:39.829Z,9.68
2019-06-27T06:28:09.586Z,10.63
2019-06-27T06:30:44.266Z,9.65
2019-06-27T06:33:09.164Z,9.90
2019-06-27T06:35:38.014Z,8.88
2019-06-27T06:38:06.872Z,9.83
2019-06-27T06:40:36.038Z,9.88
2019-06-27T06:43:05.016Z,9.10
2019-06-27T06:45:33.870Z,9.30
2019-06-27T06:48:02.728Z,9.38
2019-06-27T06:50:31.651Z,9.75
2019-06-27T06:53:00.485Z,9.60
2019-06-27T06:55:29.407Z,9.65
2019-06-27T06:57:58.334Z,9.15
2019-06-27T07:00:27.541Z,9.78
2019-06-27T07:02:56.624Z,9.23
2019-06-27T07:05:25.619Z,9.25
2019-06-27T07:07:54.533Z,9.18
2019-06-27T07:10:23.557Z,8.65
2019-06-27T07:12:52.523Z,9.18
2019-06-27T07:15:21.435Z,9.08
2019-06-27T07:17:50.336Z,8.53
2019-06-27T07:20:19.785Z,8.65
2019-06-27T07:22:48.755Z,9.13
2019-06-27T07:25:17.791Z,8.98
2019-06-27T07:27:46.739Z,8.53
2019-06-27T07:30:16.031Z,8.98
2019-06-27T07:32:45.010Z,9.30
2019-06-27T07:35:14.286Z,8.78
2019-06-27T07:37:43.196Z,8.75
2019-06-27T07:40:12.278Z,8.45
2019-06-27T07:42:41.214Z,8.40
2019-06-27T07:45:10.730Z,8.90
2019-06-27T07:47:50.710Z,8.90
2019-06-27T07:50:19.881Z,9.33
2019-06-27T07:52:48.810Z,8.38
2019-06-27T07:55:17.795Z,8.45
2019-06-27T07:57:46.717Z,9.43
2019-06-27T08:00:15.894Z,8.50
2019-06-27T08:02:44.731Z,8.25
2019-06-27T08:05:13.926Z,8.65
2019-06-27T08:07:42.902Z,9.15
2019-06-27T08:10:11.823Z,8.23
2019-06-27T08:12:42.427Z,8.28
2019-06-27T08:15:11.819Z,7.65
2019-06-27T08:17:40.642Z,7.53
2019-06-27T08:20:10.146Z,8.48
2019-06-27T08:23:15.646Z,7.62
2019-06-27T08:25:44.724Z,8.20
2019-06-27T08:28:13.622Z,7.60
2019-06-27T08:30:42.467Z,7.72
2019-06-27T08:33:11.388Z,7.12
2019-06-27T08:35:40.287Z,8.03
2019-06-27T08:38:09.205Z,7.30
2019-06-27T08:40:38.187Z,7.72
2019-06-27T08:43:07.443Z,7.80
2019-06-27T08:45:36.359Z,8.18
2019-06-27T08:48:05.354Z,7.50
2019-06-27T08:50:34.283Z,7.05
2019-06-27T08:53:03.119Z,6.95
2019-06-27T08:55:31.985Z,6.95
2019-06-27T08:58:00.995Z,6.62
2019-06-27T09:00:29.849Z,6.75
2019-06-27T09:02:58.782Z,6.83
2019-06-27T09:05:27.643Z,7.20
2019-06-27T09:07:56.481Z,6.35
2019-06-27T09:10:25.473Z,7.55
2019-06-27T09:12:54.500Z,7.40
2019-06-27T09:15:23.498Z,6.75
2019-06-27T09:17:52.326Z,7.47
2019-06-27T09:20:22.777Z,7.00
2019-06-27T09:22:51.610Z,6.67
2019-06-27T09:25:21.318Z,6.97
2019-06-27T09:27:50.242Z,7.22
2019-06-27T09:30:19.354Z,7.05
2019-06-27T09:32:48.272Z,7.20
2019-06-27T09:35:17.612Z,6.87
2019-06-27T09:37:46.862Z,6.90
2019-06-27T09:40:16.041Z,7.03
2019-06-27T09:42:44.971Z,6.97
2019-06-27T09:45:14.542Z,6.95
2019-06-27T09:47:43.586Z,7.53
2019-06-27T09:50:12.842Z,6.60
2019-06-27T09:52:41.833Z,6.75
2019-06-27T09:55:11.009Z,7.12
2019-06-27T09:57:39.971Z,6.70
2019-06-27T10:00:09.478Z,7.70
2019-06-27T10:02:42.189Z,7.05
2019-06-27T10:05:09.392Z,8.65
2019-06-27T10:07:38.643Z,7.58
2019-06-27T10:10:08.935Z,7.80
2019-06-27T10:12:42.899Z,7.58
2019-06-27T10:15:08.873Z,7.90
2019-06-27T10:17:37.874Z,8.15
2019-06-27T10:20:07.912Z,8.10
2019-06-27T10:22:36.934Z,8.35
2019-06-27T10:25:17.733Z,8.18
2019-06-27T10:27:46.921Z,7.72
2019-06-27T10:30:16.301Z,8.45
2019-06-27T10:32:58.231Z,8.05
2019-06-27T10:35:15.781Z,8.13
2019-06-27T10:37:44.723Z,8.60
2019-06-27T10:40:14.498Z,8.20
2019-06-27T10:42:43.359Z,9.03
2019-06-27T10:45:12.446Z,8.30
2019-06-27T10:47:41.627Z,9.18
2019-06-27T10:50:10.730Z,8.90
2019-06-27T10:52:39.717Z,8.35
2019-06-27T10:55:09.132Z,8.48
2019-06-27T10:57:38.097Z,8.73
2019-06-27T11:00:08.522Z,8.80
2019-06-27T11:02:37.517Z,7.45
2019-06-27T11:05:07.357Z,8.88
2019-06-27T11:07:39.746Z,9.30
2019-06-27T11:10:07.960Z,8.43
2019-06-27T11:12:36.877Z,8.73
2019-06-27T11:15:07.707Z,8.45
2019-06-27T11:17:36.706Z,9.25
2019-06-27T11:20:05.991Z,8.40
2019-06-27T11:22:35.072Z,8.45
2019-06-27T11:25:04.197Z,7.70
2019-06-27T11:27:33.444Z,9.28
2019-06-27T11:30:02.569Z,8.28
2019-06-27T11:32:31.443Z,8.35
2019-06-27T11:35:00.302Z,9.20
2019-06-27T11:37:29.219Z,9.48
2019-06-27T11:39:58.077Z,9.35
2019-06-27T11:42:29.794Z,8.50
2019-06-27T11:44:57.530Z,7.75
2019-06-27T11:47:26.750Z,8.75
2019-06-27T11:49:55.670Z,8.35
2019-06-27T11:52:26.389Z,8.18
2019-06-27T11:54:55.722Z,7.78
2019-06-27T11:57:24.643Z,8.28
2019-06-27T12:00:12.867Z,8.13
2019-06-27T12:02:41.838Z,8.00
2019-06-27T12:05:11.127Z,8.13
2019-06-27T12:07:40.037Z,7.55
2019-06-27T12:10:09.429Z,8.08
2019-06-27T12:12:38.277Z,8.88
2019-06-27T12:15:07.394Z,8.40
2019-06-27T12:17:36.381Z,8.40
2019-06-27T12:20:06.307Z,8.30
2019-06-27T12:22:35.209Z,7.92
2019-06-27T12:25:04.254Z,8.43
2019-06-27T12:27:33.213Z,8.65
2019-06-27T12:30:02.070Z,7.87
2019-06-27T12:32:30.965Z,8.65
2019-06-27T12:34:59.811Z,8.13
2019-06-27T12:37:28.654Z,7.37
2019-06-27T12:39:57.590Z,8.10
2019-06-27T12:42:32.269Z,8.83
2019-06-27T12:44:57.067Z,7.47
2019-06-27T12:47:26.810Z,7.42
2019-06-27T12:50:02.634Z,7.75
2019-06-27T12:52:26.726Z,8.40
2019-06-27T12:54:55.677Z,7.78
2019-06-27T12:57:24.574Z,7.55
2019-06-27T12:59:53.418Z,7.78
2019-06-27T13:02:22.511Z,8.45
2019-06-27T13:04:51.436Z,7.35
2019-06-27T13:07:20.372Z,7.65
2019-06-27T13:09:49.293Z,6.85
2019-06-27T13:12:18.213Z,7.20
2019-06-27T13:14:47.122Z,6.60
2019-06-27T13:17:15.954Z,6.90
2019-06-27T13:19:44.810Z,7.05
2019-06-27T13:22:13.646Z,7.70
2019-06-27T13:24:42.507Z,6.58
2019-06-27T13:27:11.348Z,6.42
2019-06-27T13:29:40.209Z,6.95
2019-06-27T13:32:09.064Z,7.37
2019-06-27T13:34:40.825Z,7.20
2019-06-27T13:37:08.551Z,6.58
2019-06-27T13:39:37.542Z,7.62
2019-06-27T13:42:06.447Z,6.85
2019-06-27T13:44:35.295Z,7.45
2019-06-27T13:47:04.280Z,7.00
2019-06-27T13:49:33.132Z,7.42
2019-06-27T13:52:02.549Z,7.53
2019-06-27T13:54:31.541Z,7.70
2019-06-27T13:57:00.443Z,6.95
2019-06-27T13:59:29.372Z,6.60
2019-06-27T14:01:58.534Z,6.90
2019-06-27T14:04:27.449Z,7.95
2019-06-27T14:06:56.386Z,7.40
2019-06-27T14:09:25.222Z,7.60
2019-06-27T14:11:54.145Z,7.85
2019-06-27T14:14:22.989Z,6.67
2019-06-27T14:16:52.171Z,6.95
2019-06-27T14:19:21.007Z,6.75
2019-06-27T14:21:50.259Z,7.00
2019-06-27T14:24:19.486Z,7.12
2019-06-27T14:26:48.714Z,8.05
2019-06-27T14:29:17.561Z,7.03
2019-06-27T14:31:46.575Z,6.78
2019-06-27T14:34:15.410Z,6.78
2019-06-27T14:36:44.247Z,7.22
2019-06-27T14:39:13.175Z,6.97
2019-06-27T14:41:42.084Z,7.03
2019-06-27T14:44:11.324Z,7.15
2019-06-27T14:46:40.206Z,7.10
2019-06-27T14:49:09.141Z,7.28
2019-06-27T14:51:37.997Z,6.40
2019-06-27T14:54:07.058Z,6.28
2019-06-27T14:56:35.978Z,5.65
2019-06-27T14:59:04.955Z,6.45
2019-06-27T15:01:33.808Z,6.05
2019-06-27T15:04:02.673Z,6.08
2019-06-27T15:06:31.658Z,5.97
2019-06-27T15:09:02.659Z,6.60
2019-06-27T15:11:31.103Z,7.50
2019-06-27T15:14:00.013Z,5.60
2019-06-27T15:16:28.854Z,6.03
2019-06-27T15:18:57.709Z,5.40
2019-06-27T15:21:26.551Z,5.87
2019-06-27T15:23:55.536Z,5.17
2019-06-27T15:26:24.557Z,5.58
2019-06-27T15:28:53.382Z,5.87
2019-06-27T15:31:22.617Z,5.30
2019-06-27T15:33:51.667Z,5.37
2019-06-27T15:36:20.880Z,5.40
2019-06-27T15:38:49.715Z,4.45
2019-06-27T15:41:18.563Z,4.72
2019-06-27T15:43:47.419Z,4.62
2019-06-27T15:46:16.333Z,5.00
2019-06-27T15:48:45.466Z,4.83
2019-06-27T15:51:14.438Z,4.50
2019-06-27T15:53:43.368Z,4.03
2019-06-27T15:56:12.295Z,4.30
2019-06-27T15:58:41.549Z,4.67
2019-06-27T16:01:10.535Z,3.62
2019-06-27T16:03:39.447Z,3.35
2019-06-27T16:06:10.367Z,3.75
2019-06-27T16:08:38.979Z,3.77
2019-06-27T16:11:07.949Z,3.83
2019-06-27T16:13:36.890Z,4.10
2019-06-27T16:16:05.715Z,3.47
2019-06-27T16:18:34.629Z,2.67
2019-06-27T16:21:03.550Z,2.87
2019-06-27T16:23:32.413Z,3.05
2019-06-27T16:26:01.254Z,2.55
2019-06-27T16:28:30.098Z,3.00
2019-06-27T16:30:59.069Z,2.22
2019-06-27T16:33:27.926Z,2.65
2019-06-27T16:35:56.918Z,2.40
2019-06-27T16:38:25.758Z,2.00
2019-06-27T16:40:54.593Z,2.50
2019-06-27T16:43:23.509Z,2.35
2019-06-27T16:45:52.402Z,2.37
2019-06-27T16:48:21.236Z,2.10
2019-06-27T16:50:50.222Z,2.02
2019-06-27T16:53:19.457Z,2.33
2019-06-27T16:55:48.291Z,1.80
2019-06-27T16:58:17.228Z,2.92
2019-06-27T17:00:46.227Z,2.33
2019-06-27T17:03:15.639Z,1.95
2019-06-27T17:05:44.550Z,1.90
2019-06-27T17:08:13.487Z,1.90
2019-06-27T17:10:42.395Z,2.00
2019-06-27T17:13:11.304Z,1.70
2019-06-27T17:15:40.405Z,1.50
2019-06-27T17:18:09.393Z,1.40
2019-06-27T17:20:38.219Z,1.52
2019-06-27T17:23:07.049Z,1.45
2019-06-27T17:25:36.544Z,1.57
2019-06-27T17:28:05.616Z,1.52
2019-06-27T17:30:34.626Z,1.55
2019-06-27T17:33:03.609Z,1.25
2019-06-27T17:35:32.454Z,1.50
2019-06-27T17:38:01.312Z,1.12
2019-06-27T17:40:30.164Z,1.27
2019-06-27T17:42:59.001Z,0.98
2019-06-27T17:45:27.843Z,1.02
2019-06-27T17:47:56.777Z,1.17
2019-06-27T17:50:25.702Z,1.40
2019-06-27T17:52:54.652Z,1.37
2019-06-27T17:55:23.498Z,1.35
2019-06-27T17:57:52.330Z,1.10
2019-06-27T18:00:21.423Z,1.17
2019-06-27T18:02:50.327Z,1.10
2019-06-27T18:05:19.313Z,1.30
2019-06-27T18:07:48.145Z,1.10
2019-06-27T18:10:17.234Z,1.20
2019-06-27T18:12:46.218Z,1.20
2019-06-27T18:15:16.518Z,1.40
2019-06-27T18:17:45.431Z,1.10
2019-06-27T18:20:14.352Z,1.37
2019-06-27T18:22:43.201Z,1.02
2019-06-27T18:25:12.217Z,1.22
2019-06-27T18:27:41.295Z,0.98
2019-06-27T18:30:10.310Z,1.10
2019-06-27T18:32:39.490Z,0.90
2019-06-27T18:35:08.614Z,0.80
2019-06-27T18:37:37.551Z,5.25
2019-06-27T18:40:07.702Z,1.30
2019-06-27T18:42:36.742Z,1.07
2019-06-27T18:45:06.098Z,1.00
2019-06-27T18:47:34.989Z,0.95
2019-06-27T18:50:04.299Z,1.17
2019-06-27T18:52:33.114Z,1.17
2019-06-27T18:55:02.270Z,1.10
2019-06-27T18:57:31.181Z,1.45
2019-06-27T19:00:00.032Z,1.20
2019-06-27T19:02:28.938Z,1.10
2019-06-27T19:04:57.854Z,1.22
2019-06-27T19:07:26.759Z,1.15
2019-06-27T19:09:55.577Z,1.00
2019-06-27T19:12:24.511Z,0.98
2019-06-27T19:14:53.346Z,0.93
2019-06-27T19:17:22.189Z,0.82
2019-06-27T19:19:53.877Z,1.00
2019-06-27T19:22:40.821Z,1.02
2019-06-27T19:25:16.378Z,0.90
2019-06-27T19:27:45.278Z,0.90
2019-06-27T19:30:14.358Z,1.10
2019-06-27T19:32:43.179Z,0.75
2019-06-27T19:35:12.166Z,1.20
2019-06-27T19:37:41.013Z,1.20
2019-06-27T19:40:10.519Z,1.17
2019-06-27T19:42:39.455Z,1.10
2019-06-27T19:45:08.637Z,1.15
2019-06-27T19:47:37.473Z,1.00
2019-06-27T19:50:06.694Z,1.40
2019-06-27T19:52:35.929Z,1.02
2019-06-27T19:55:05.130Z,1.10
2019-06-27T19:57:34.474Z,1.60
2019-06-27T20:00:03.712Z,1.00
2019-06-27T20:02:32.791Z,1.22
2019-06-27T20:05:01.712Z,1.20
2019-06-27T20:07:30.637Z,1.30
2019-06-27T20:09:59.480Z,1.10
2019-06-27T20:12:28.411Z,1.20
2019-06-27T20:14:57.333Z,1.27
2019-06-27T20:17:26.246Z,1.10
2019-06-27T20:19:55.163Z,1.15
2019-06-27T20:22:24.077Z,1.35
2019-06-27T20:24:52.966Z,1.00
2019-06-27T20:27:22.583Z,1.40
2019-06-27T20:29:51.478Z,1.47
2019-06-27T20:32:20.402Z,1.10
2019-06-27T20:34:49.237Z,1.17
2019-06-27T20:37:18.074Z,1.25
2019-06-27T20:39:54.058Z,1.40
2019-06-27T20:42:23.063Z,1.37
2019-06-27T20:44:51.984Z,1.20
2019-06-27T20:47:20.886Z,1.27
2019-06-27T20:49:49.798Z,1.30
2019-06-27T20:52:18.634Z,1.40
2019-06-27T20:54:47.541Z,1.32
2019-06-27T20:57:16.819Z,1.20
2019-06-27T20:59:45.815Z,1.47
2019-06-27T21:02:14.673Z,1.37
2019-06-27T21:04:43.730Z,1.30
2019-06-27T21:07:12.652Z,1.20
2019-06-27T21:09:41.553Z,1.50
2019-06-27T21:12:10.484Z,1.55
2019-06-27T21:14:39.390Z,1.60
2019-06-27T21:17:08.487Z,1.10
2019-06-27T21:19:37.545Z,1.47
2019-06-27T21:22:06.610Z,1.40
2019-06-27T21:24:43.705Z,1.30
2019-06-27T21:27:15.982Z,1.65
2019-06-27T21:29:45.021Z,1.50
2019-06-27T21:32:30.243Z,1.60
2019-06-27T21:34:44.606Z,1.32
2019-06-27T21:37:13.471Z,1.40
2019-06-27T21:39:42.403Z,1.10
2019-06-27T21:42:11.324Z,1.45
2019-06-27T21:44:40.166Z,1.42
2019-06-27T21:47:09.226Z,1.30
2019-06-27T21:49:38.147Z,1.60
2019-06-27T21:52:07.127Z,1.98
2019-06-27T21:54:36.077Z,1.20
2019-06-27T21:57:05.070Z,1.30
2019-06-27T21:59:34.000Z,1.47
2019-06-27T22:02:02.979Z,1.42
2019-06-27T22:04:31.813Z,1.40
2019-06-27T22:07:00.724Z,1.67
2019-06-27T22:09:29.586Z,1.87
2019-06-27T22:11:58.576Z,2.15
2019-06-27T22:14:27.418Z,1.60
2019-06-27T22:16:56.317Z,2.08
2019-06-27T22:19:25.186Z,1.70
2019-06-27T22:21:54.217Z,1.98
2019-06-27T22:24:23.133Z,1.90
2019-06-27T22:26:52.060Z,1.80
2019-06-27T22:29:20.948Z,2.30
2019-06-27T22:31:49.909Z,1.82
2019-06-27T22:34:18.755Z,1.62
2019-06-27T22:36:47.915Z,2.00
2019-06-27T22:39:40.529Z,1.80
2019-06-27T22:42:23.535Z,1.67
2019-06-27T22:45:10.296Z,2.00
2019-06-27T22:47:57.281Z,2.15
2019-06-27T22:50:45.435Z,1.60
2019-06-27T22:53:20.793Z,1.80
2019-06-27T22:55:48.684Z,2.22
2019-06-27T22:58:17.586Z,2.00
2019-06-27T23:00:46.510Z,1.77
2019-06-27T23:03:15.485Z,1.98
2019-06-27T23:05:44.422Z,1.52
2019-06-27T23:08:13.368Z,2.20
2019-06-27T23:10:42.316Z,2.33
2019-06-27T23:13:11.239Z,1.92
2019-06-27T23:15:40.294Z,1.95
2019-06-27T23:18:09.274Z,2.00
2019-06-27T23:20:38.118Z,2.00
2019-06-27T23:23:07.194Z,2.33
2019-06-27T23:25:36.116Z,2.55
2019-06-27T23:28:05.097Z,2.05
2019-06-27T23:30:34.078Z,1.90
2019-06-27T23:33:02.908Z,2.15
2019-06-27T23:35:31.835Z,2.22
2019-06-27T23:38:00.671Z,1.90
2019-06-27T23:40:29.548Z,2.27
2019-06-27T23:42:58.381Z,1.75
2019-06-27T23:45:27.232Z,2.05
2019-06-27T23:47:56.099Z,2.00
2019-06-27T23:50:25.018Z,1.98
2019-06-27T23:52:53.847Z,2.10
2019-06-27T23:55:22.749Z,2.58
2019-06-27T23:57:51.660Z,2.20
